Time;durP1;ratioP1;P1;durP2;ratioP2;P2;SDS_P1;SDS_P2;PMS_P1;PMS_P2;Temp;Humidity;BMP_temperature;BMP_pressure;BME280_temperature;BME280_humidity;BME280_pressure;Samples;Min_cycle;Max_cycle;Signal;HPM_P1;HPM_P2
2022/06/14 00:02:29;;;;;;;;;;;21.90;56.60;;;;;;484531;245;1148;-42
2022/06/14 00:04:32;;;;;;;;;;;21.90;56.40;;;;;;484433;246;1523;-42
2022/06/14 00:06:32;;;;;;;;;;;21.90;56.50;;;;;;484513;246;1698;-42
2022/06/14 00:08:33;;;;;;;;;;;21.90;56.50;;;;;;484453;246;1125;-41
2022/06/14 00:10:35;;;;;;;;;;;21.90;56.60;;;;;;484392;246;1250;-42
2022/06/14 00:12:36;;;;;;;;;;;21.90;56.50;;;;;;484426;246;1185;-42
2022/06/14 00:14:37;;;;;;;;;;;21.90;56.50;;;;;;484387;246;1065;-42
2022/06/14 00:16:39;;;;;;;;;;;21.80;56.50;;;;;;484512;246;2112;-42
2022/06/14 00:18:40;;;;;;;;;;;21.80;56.50;;;;;;484382;246;1133;-42
2022/06/14 00:20:41;;;;;;;;;;;21.80;56.50;;;;;;484911;246;1032;-42
2022/06/14 00:22:43;;;;;;;;;;;21.90;56.50;;;;;;484629;246;1127;-42
2022/06/14 00:24:44;;;;;;;;;;;21.80;56.60;;;;;;484790;246;1187;-42
2022/06/14 00:26:45;;;;;;;;;;;21.80;56.60;;;;;;484682;246;1377;-42
2022/06/14 00:28:47;;;;;;;;;;;21.80;56.60;;;;;;484719;246;1080;-42
2022/06/14 00:30:48;;;;;;;;;;;21.80;56.60;;;;;;484407;246;1405;-42
2022/06/14 00:32:49;;;;;;;;;;;21.80;56.50;;;;;;484592;246;1248;-42
2022/06/14 00:34:51;;;;;;;;;;;21.80;56.50;;;;;;484683;246;992;-41
2022/06/14 00:36:52;;;;;;;;;;;21.80;56.60;;;;;;484704;246;2109;-42
2022/06/14 00:38:53;;;;;;;;;;;21.80;56.50;;;;;;484554;246;1157;-42
2022/06/14 00:40:55;;;;;;;;;;;21.80;56.60;;;;;;484693;246;1180;-42
2022/06/14 00:42:57;;;;;;;;;;;21.80;56.50;;;;;;484470;246;1267;-42
2022/06/14 00:44:58;;;;;;;;;;;21.80;56.60;;;;;;484817;246;1252;-41
2022/06/14 00:47:00;;;;;;;;;;;21.80;56.60;;;;;;484450;246;1235;-42
2022/06/14 00:49:01;;;;;;;;;;;21.80;56.60;;;;;;484605;246;1520;-42
2022/06/14 00:51:02;;;;;;;;;;;21.80;56.60;;;;;;484509;246;1347;-42
2022/06/14 00:53:04;;;;;;;;;;;21.80;56.60;;;;;;484643;246;1186;-43
2022/06/14 00:55:05;;;;;;;;;;;21.80;56.40;;;;;;484611;246;2195;-42
2022/06/14 00:57:06;;;;;;;;;;;21.80;56.50;;;;;;484450;246;1324;-43
2022/06/14 00:59:08;;;;;;;;;;;21.90;56.50;;;;;;484583;246;1283;-42
2022/06/14 01:01:09;;;;;;;;;;;21.80;56.50;;;;;;484380;246;1232;-42
2022/06/14 01:03:10;;;;;;;;;;;21.80;56.50;;;;;;484766;246;1641;-42
2022/06/14 01:05:12;;;;;;;;;;;21.80;56.50;;;;;;484807;246;1084;-42
2022/06/14 01:07:13;;;;;;;;;;;21.80;56.40;;;;;;484274;246;1284;-42
2022/06/14 01:09:14;;;;;;;;;;;21.90;56.40;;;;;;484479;246;1193;-42
2022/06/14 01:11:15;;;;;;;;;;;21.90;56.40;;;;;;484357;246;1131;-42
2022/06/14 01:13:17;;;;;;;;;;;21.90;56.50;;;;;;484589;246;1091;-42
2022/06/14 01:15:18;;;;;;;;;;;21.80;56.60;;;;;;484804;246;2145;-42
2022/06/14 01:17:19;;;;;;;;;;;21.80;56.50;;;;;;484603;246;1246;-43
2022/06/14 01:19:21;;;;;;;;;;;21.80;56.60;;;;;;484601;246;1118;-42
2022/06/14 01:21:22;;;;;;;;;;;21.80;56.50;;;;;;484498;246;1062;-42
2022/06/14 01:23:24;;;;;;;;;;;21.90;56.40;;;;;;484417;246;1137;-42
2022/06/14 01:25:25;;;;;;;;;;;21.90;56.40;;;;;;484638;246;1163;-42
2022/06/14 01:27:27;;;;;;;;;;;21.80;56.40;;;;;;484507;246;1380;-42
2022/06/14 01:29:27;;;;;;;;;;;21.90;56.50;;;;;;484529;246;2051;-42
2022/06/14 01:31:29;;;;;;;;;;;21.90;56.40;;;;;;484311;246;1218;-42
2022/06/14 01:33:30;;;;;;;;;;;21.90;56.50;;;;;;484600;246;1183;-41
2022/06/14 01:35:34;;;;;;;;;;;21.80;56.50;;;;;;484686;246;2200;-42
2022/06/14 01:37:34;;;;;;;;;;;21.80;56.60;;;;;;484215;245;1383;-42
2022/06/14 01:39:36;;;;;;;;;;;21.90;56.50;;;;;;484449;246;1322;-43
2022/06/14 01:41:36;;;;;;;;;;;21.80;56.40;;;;;;484759;246;1416;-42
2022/06/14 01:43:38;;;;;;;;;;;21.90;56.50;;;;;;484394;246;1241;-41
2022/06/14 01:45:39;;;;;;;;;;;21.80;56.50;;;;;;484527;246;1339;-42
2022/06/14 01:47:40;;;;;;;;;;;21.90;56.60;;;;;;484714;246;1301;-42
2022/06/14 01:52:02;;;;;;;;;;;21.80;56.50;;;;;;484845;245;1275;-42
2022/06/14 01:54:02;;;;;;;;;;;21.80;56.50;;;;;;484355;246;2195;-42
2022/06/14 01:56:04;;;;;;;;;;;21.90;56.50;;;;;;484424;246;2128;-42
2022/06/14 01:58:05;;;;;;;;;;;21.80;56.50;;;;;;484588;246;1352;-42
2022/06/14 02:00:07;;;;;;;;;;;21.80;56.60;;;;;;484807;246;1297;-42
2022/06/14 02:02:08;;;;;;;;;;;21.80;56.60;;;;;;484490;246;1206;-41
2022/06/14 02:06:29;;;;;;;;;;;21.80;56.60;;;;;;484952;244;1282;-42
2022/06/14 02:08:30;;;;;;;;;;;21.80;56.60;;;;;;484362;246;1206;-43
2022/06/14 02:10:31;;;;;;;;;;;21.80;56.60;;;;;;484822;246;1172;-42
2022/06/14 02:12:33;;;;;;;;;;;21.80;56.50;;;;;;484816;246;1372;-43
2022/06/14 02:14:34;;;;;;;;;;;21.80;56.60;;;;;;484582;246;1230;-43
2022/06/14 02:16:36;;;;;;;;;;;21.80;56.60;;;;;;484328;246;2187;-42
2022/06/14 02:18:37;;;;;;;;;;;21.80;56.60;;;;;;484515;246;1259;-42
2022/06/14 02:20:38;;;;;;;;;;;21.80;56.50;;;;;;484390;246;1256;-42
2022/06/14 02:22:40;;;;;;;;;;;21.90;56.50;;;;;;484453;246;1270;-42
2022/06/14 02:24:41;;;;;;;;;;;21.80;56.50;;;;;;484623;246;1186;-42
2022/06/14 02:26:42;;;;;;;;;;;21.80;56.50;;;;;;484341;246;1533;-42
2022/06/14 02:28:44;;;;;;;;;;;21.80;56.70;;;;;;484465;246;1250;-42
2022/06/14 02:30:45;;;;;;;;;;;21.70;56.70;;;;;;484441;246;1268;-42
2022/06/14 02:32:46;;;;;;;;;;;21.80;56.70;;;;;;484462;246;1275;-42
2022/06/14 02:34:48;;;;;;;;;;;21.80;56.60;;;;;;484676;246;1251;-42
2022/06/14 02:36:49;;;;;;;;;;;21.80;56.60;;;;;;484602;246;2124;-43
2022/06/14 02:38:51;;;;;;;;;;;21.80;56.50;;;;;;484434;246;1226;-41
2022/06/14 02:40:52;;;;;;;;;;;21.80;56.50;;;;;;484450;246;1362;-42
2022/06/14 02:42:53;;;;;;;;;;;21.80;56.70;;;;;;484404;246;1297;-42
2022/06/14 02:44:55;;;;;;;;;;;21.80;56.60;;;;;;484489;246;1101;-42
2022/06/14 02:46:56;;;;;;;;;;;21.80;56.60;;;;;;484608;246;1367;-42
2022/06/14 02:48:57;;;;;;;;;;;21.70;56.70;;;;;;484657;246;1097;-43
2022/06/14 02:50:59;;;;;;;;;;;21.80;56.70;;;;;;484436;246;1122;-43
2022/06/14 02:53:00;;;;;;;;;;;21.80;56.60;;;;;;484544;246;1095;-42
2022/06/14 02:55:01;;;;;;;;;;;21.80;56.60;;;;;;484630;246;1210;-42
2022/06/14 02:57:04;;;;;;;;;;;21.80;56.50;;;;;;484416;246;2195;-42
2022/06/14 02:59:04;;;;;;;;;;;21.80;56.50;;;;;;484334;246;2291;-42
2022/06/14 03:01:05;;;;;;;;;;;21.90;56.50;;;;;;484371;246;1062;-42
2022/06/14 03:03:07;;;;;;;;;;;21.90;56.50;;;;;;484376;246;1064;-42
2022/06/14 03:05:08;;;;;;;;;;;21.90;56.50;;;;;;484444;246;1073;-42
2022/06/14 03:07:10;;;;;;;;;;;21.80;56.60;;;;;;484285;246;1261;-42
2022/06/14 03:09:11;;;;;;;;;;;21.70;56.60;;;;;;484503;246;1156;-42
2022/06/14 03:11:12;;;;;;;;;;;21.80;56.60;;;;;;484791;246;1130;-43
2022/06/14 03:13:14;;;;;;;;;;;21.80;56.70;;;;;;484455;246;1070;-42
2022/06/14 03:15:15;;;;;;;;;;;21.70;56.70;;;;;;484856;246;1285;-42
2022/06/14 03:17:16;;;;;;;;;;;21.80;56.70;;;;;;484852;246;2132;-41
2022/06/14 03:19:18;;;;;;;;;;;21.80;56.70;;;;;;484590;246;1217;-41
2022/06/14 03:21:19;;;;;;;;;;;21.80;56.60;;;;;;484812;246;1206;-42
2022/06/14 03:23:20;;;;;;;;;;;21.80;56.60;;;;;;484404;246;1193;-42
2022/06/14 03:25:22;;;;;;;;;;;21.80;56.60;;;;;;484540;246;1165;-42
2022/06/14 03:27:23;;;;;;;;;;;21.80;56.60;;;;;;484810;246;1175;-42
2022/06/14 03:29:24;;;;;;;;;;;21.80;56.50;;;;;;484453;246;1199;-42
2022/06/14 03:31:26;;;;;;;;;;;21.80;56.70;;;;;;484749;246;1389;-42
2022/06/14 03:33:27;;;;;;;;;;;21.70;56.60;;;;;;484587;246;1284;-41
2022/06/14 03:35:29;;;;;;;;;;;21.80;56.60;;;;;;484644;246;1274;-42
2022/06/14 03:37:30;;;;;;;;;;;21.80;56.60;;;;;;484405;246;2191;-42
2022/06/14 03:39:31;;;;;;;;;;;21.80;56.50;;;;;;484411;246;1197;-42
2022/06/14 03:41:32;;;;;;;;;;;21.80;56.50;;;;;;484366;246;1188;-42
2022/06/14 03:43:33;;;;;;;;;;;21.80;56.50;;;;;;484813;246;1285;-43
2022/06/14 03:45:35;;;;;;;;;;;21.80;56.60;;;;;;484332;246;1259;-42
2022/06/14 03:47:36;;;;;;;;;;;21.80;56.50;;;;;;484523;246;1400;-42
2022/06/14 03:49:38;;;;;;;;;;;21.70;56.50;;;;;;484627;246;1271;-42
2022/06/14 03:51:39;;;;;;;;;;;21.70;56.60;;;;;;484739;246;1202;-42
2022/06/14 03:53:40;;;;;;;;;;;21.70;56.70;;;;;;484768;246;1201;-42
2022/06/14 03:55:42;;;;;;;;;;;21.80;56.70;;;;;;484412;246;1223;-41
2022/06/14 03:57:43;;;;;;;;;;;21.80;56.60;;;;;;484412;246;2175;-42
2022/06/14 03:59:44;;;;;;;;;;;21.80;56.60;;;;;;484900;246;1133;-42
2022/06/14 04:01:46;;;;;;;;;;;21.80;56.60;;;;;;484688;246;1066;-42
2022/06/14 04:03:47;;;;;;;;;;;21.70;56.60;;;;;;484519;246;1281;-43
2022/06/14 04:05:49;;;;;;;;;;;21.80;56.50;;;;;;484892;246;991;-43
2022/06/14 04:07:50;;;;;;;;;;;21.80;56.60;;;;;;484427;246;1138;-41
2022/06/14 04:09:51;;;;;;;;;;;21.80;56.60;;;;;;484427;246;1180;-42
2022/06/14 04:11:53;;;;;;;;;;;21.70;56.60;;;;;;484799;246;1179;-42
2022/06/14 04:13:54;;;;;;;;;;;21.70;56.70;;;;;;484833;246;1050;-41
2022/06/14 04:15:55;;;;;;;;;;;21.70;56.60;;;;;;484403;246;1177;-42
2022/06/14 04:17:57;;;;;;;;;;;21.80;56.60;;;;;;484697;246;2120;-42
2022/06/14 04:19:58;;;;;;;;;;;21.80;56.60;;;;;;484422;246;1074;-43
2022/06/14 04:21:59;;;;;;;;;;;21.80;56.50;;;;;;484469;246;1143;-42
2022/06/14 04:24:01;;;;;;;;;;;21.80;56.60;;;;;;484714;246;1086;-42
2022/06/14 04:26:02;;;;;;;;;;;21.80;56.60;;;;;;484405;246;1178;-42
2022/06/14 04:28:03;;;;;;;;;;;21.80;56.60;;;;;;484446;246;1236;-42
2022/06/14 04:30:05;;;;;;;;;;;21.80;56.60;;;;;;484400;246;1261;-41
2022/06/14 04:32:06;;;;;;;;;;;21.80;56.60;;;;;;484330;246;1291;-42
2022/06/14 04:34:07;;;;;;;;;;;21.80;56.50;;;;;;484709;246;1093;-41
2022/06/14 04:36:09;;;;;;;;;;;21.80;56.60;;;;;;484575;246;1056;-42
2022/06/14 04:38:12;;;;;;;;;;;21.80;56.60;;;;;;484202;246;2127;-42
2022/06/14 04:40:12;;;;;;;;;;;21.70;56.60;;;;;;484390;246;2603;-42
2022/06/14 04:42:13;;;;;;;;;;;21.80;56.70;;;;;;484636;246;1247;-42
2022/06/14 04:44:14;;;;;;;;;;;21.70;56.70;;;;;;484263;246;1080;-42
2022/06/14 04:46:16;;;;;;;;;;;21.70;56.70;;;;;;484606;246;1440;-42
2022/06/14 04:48:17;;;;;;;;;;;21.70;56.80;;;;;;484374;246;1077;-42
2022/06/14 04:50:18;;;;;;;;;;;21.70;56.80;;;;;;484488;246;1150;-42
2022/06/14 04:52:20;;;;;;;;;;;21.70;56.70;;;;;;484085;246;1252;-42
2022/06/14 04:54:21;;;;;;;;;;;21.80;56.70;;;;;;484440;246;1061;-41
2022/06/14 04:56:22;;;;;;;;;;;21.80;56.60;;;;;;484355;246;1451;-42
2022/06/14 04:58:23;;;;;;;;;;;21.80;56.60;;;;;;484726;246;2183;-42
2022/06/14 05:00:27;;;;;;;;;;;21.80;56.60;;;;;;484199;246;1074;-42
2022/06/14 05:02:26;;;;;;;;;;;21.70;56.70;;;;;;484035;246;1753;-42
2022/06/14 05:04:29;;;;;;;;;;;21.70;56.70;;;;;;484340;246;1180;-42
2022/06/14 05:06:29;;;;;;;;;;;21.70;56.60;;;;;;484463;246;2500;-41
2022/06/14 05:08:30;;;;;;;;;;;21.70;56.70;;;;;;484256;246;1204;-42
2022/06/14 05:10:32;;;;;;;;;;;21.70;56.80;;;;;;484577;246;1211;-42
2022/06/14 05:12:33;;;;;;;;;;;21.80;56.70;;;;;;484258;246;1434;-42
2022/06/14 05:14:34;;;;;;;;;;;21.70;56.60;;;;;;484234;246;1231;-42
2022/06/14 05:16:36;;;;;;;;;;;21.80;56.60;;;;;;484587;246;2152;-42
2022/06/14 05:18:37;;;;;;;;;;;21.80;56.70;;;;;;484183;246;1266;-42
2022/06/14 05:20:39;;;;;;;;;;;21.70;56.60;;;;;;484685;246;1221;-42
2022/06/14 05:22:40;;;;;;;;;;;21.70;56.60;;;;;;484044;246;1191;-43
2022/06/14 05:24:41;;;;;;;;;;;21.80;56.60;;;;;;484259;246;1182;-42
2022/06/14 05:26:43;;;;;;;;;;;21.80;56.60;;;;;;484054;246;1295;-42
2022/06/14 05:28:44;;;;;;;;;;;21.80;56.50;;;;;;484030;246;1227;-42
2022/06/14 05:30:45;;;;;;;;;;;21.80;56.60;;;;;;484163;246;1279;-42
2022/06/14 05:32:46;;;;;;;;;;;21.70;56.60;;;;;;484279;246;1325;-42
2022/06/14 05:34:48;;;;;;;;;;;21.80;56.60;;;;;;484440;246;1185;-42
2022/06/14 05:36:50;;;;;;;;;;;21.80;56.50;;;;;;483917;246;2167;-42
2022/06/14 05:38:51;;;;;;;;;;;21.80;56.60;;;;;;483965;246;1283;-42
2022/06/14 05:40:52;;;;;;;;;;;21.70;56.60;;;;;;484046;246;1176;-42
2022/06/14 05:42:54;;;;;;;;;;;21.70;56.60;;;;;;483864;246;1176;-42
2022/06/14 05:44:55;;;;;;;;;;;21.70;56.60;;;;;;484318;246;1255;-42
2022/06/14 05:46:56;;;;;;;;;;;21.80;56.60;;;;;;484077;246;1256;-42
2022/06/14 05:48:58;;;;;;;;;;;21.80;56.60;;;;;;483956;246;1232;-42
2022/06/14 05:50:59;;;;;;;;;;;21.70;56.60;;;;;;484039;246;1310;-42
2022/06/14 05:53:00;;;;;;;;;;;21.80;56.60;;;;;;484052;246;1251;-42
2022/06/14 05:55:02;;;;;;;;;;;21.70;56.50;;;;;;484144;246;1308;-42
2022/06/14 05:57:03;;;;;;;;;;;21.70;56.50;;;;;;484051;246;2199;-42
2022/06/14 05:59:04;;;;;;;;;;;21.70;56.60;;;;;;484298;246;1253;-41
2022/06/14 06:01:06;;;;;;;;;;;21.70;56.60;;;;;;484013;246;1077;-42
2022/06/14 06:03:07;;;;;;;;;;;21.80;56.60;;;;;;483904;246;1268;-42
2022/06/14 06:05:08;;;;;;;;;;;21.80;56.60;;;;;;484067;246;1062;-42
2022/06/14 06:07:10;;;;;;;;;;;21.80;56.60;;;;;;483943;246;1172;-42
2022/06/14 06:09:11;;;;;;;;;;;21.70;56.50;;;;;;484009;246;1076;-41
2022/06/14 06:11:12;;;;;;;;;;;21.80;56.50;;;;;;483959;246;1242;-42
2022/06/14 06:13:14;;;;;;;;;;;21.80;56.50;;;;;;483882;246;1135;-42
2022/06/14 06:15:15;;;;;;;;;;;21.70;56.60;;;;;;483926;246;1039;-41
2022/06/14 06:17:16;;;;;;;;;;;21.70;56.50;;;;;;483989;246;2108;-42
2022/06/14 06:19:18;;;;;;;;;;;21.70;56.60;;;;;;483909;246;1085;-42
2022/06/14 06:21:19;;;;;;;;;;;21.70;56.60;;;;;;483746;246;1263;-42
2022/06/14 06:23:21;;;;;;;;;;;21.80;56.40;;;;;;484236;246;1061;-43
2022/06/14 06:25:22;;;;;;;;;;;21.80;56.40;;;;;;483891;246;1359;-42
2022/06/14 06:27:24;;;;;;;;;;;21.80;56.40;;;;;;483986;246;1187;-42
2022/06/14 06:29:26;;;;;;;;;;;21.80;56.40;;;;;;483938;246;1133;-42
2022/06/14 06:31:26;;;;;;;;;;;21.70;56.40;;;;;;483894;246;1756;-42
2022/06/14 06:33:28;;;;;;;;;;;21.80;56.30;;;;;;483903;246;1139;-43
2022/06/14 06:35:29;;;;;;;;;;;21.70;56.40;;;;;;484028;246;1358;-43
2022/06/14 06:37:30;;;;;;;;;;;21.80;56.50;;;;;;483897;246;2183;-42
2022/06/14 06:39:32;;;;;;;;;;;21.80;56.30;;;;;;483644;246;1115;-41
2022/06/14 06:44:00;;;;;;;;;;;21.80;56.30;;;;;;482451;246;1363;-42
2022/06/14 06:46:01;;;;;;;;;;;21.80;56.30;;;;;;483794;246;1230;-42
2022/06/14 06:48:03;;;;;;;;;;;21.80;56.30;;;;;;483756;246;1261;-42
2022/06/14 06:50:04;;;;;;;;;;;21.80;56.30;;;;;;483546;246;1087;-42
2022/06/14 06:52:06;;;;;;;;;;;21.70;56.30;;;;;;483580;246;1357;-42
2022/06/14 06:54:07;;;;;;;;;;;21.80;56.20;;;;;;483616;246;1094;-42
2022/06/14 06:56:08;;;;;;;;;;;21.90;56.10;;;;;;483687;245;1217;-42
2022/06/14 06:58:10;;;;;;;;;;;21.80;56.10;;;;;;484092;246;2199;-42
2022/06/14 07:00:11;;;;;;;;;;;21.80;56.10;;;;;;484047;246;2128;-42
2022/06/14 07:02:12;;;;;;;;;;;21.80;56.00;;;;;;483629;246;1188;-41
2022/06/14 07:04:14;;;;;;;;;;;21.70;56.10;;;;;;483651;246;1217;-42
2022/06/14 07:06:15;;;;;;;;;;;21.80;56.20;;;;;;483426;246;1295;-42
2022/06/14 07:08:16;;;;;;;;;;;21.80;56.30;;;;;;483508;246;1188;-42
2022/06/14 07:10:18;;;;;;;;;;;21.70;56.20;;;;;;483467;246;1296;-42
2022/06/14 07:12:19;;;;;;;;;;;21.80;56.10;;;;;;483321;246;1214;-42
2022/06/14 07:14:20;;;;;;;;;;;21.80;56.00;;;;;;483466;246;1218;-42
2022/06/14 07:16:22;;;;;;;;;;;21.80;56.10;;;;;;483533;246;1280;-43
2022/06/14 07:18:23;;;;;;;;;;;21.70;56.10;;;;;;483405;246;2190;-42
2022/06/14 07:20:24;;;;;;;;;;;21.70;56.10;;;;;;483606;246;1256;-42
2022/06/14 07:22:26;;;;;;;;;;;21.80;56.10;;;;;;483366;246;1250;-41
2022/06/14 07:24:29;;;;;;;;;;;21.80;56.10;;;;;;483606;246;1470;-42
2022/06/14 07:26:29;;;;;;;;;;;21.80;56.00;;;;;;484326;245;2036;-42
2022/06/14 07:28:30;;;;;;;;;;;21.80;56.00;;;;;;483900;246;1507;-42
2022/06/14 07:30:31;;;;;;;;;;;21.80;56.00;;;;;;484088;246;1133;-43
2022/06/14 07:32:33;;;;;;;;;;;21.80;56.10;;;;;;483500;246;1094;-41
2022/06/14 07:34:34;;;;;;;;;;;21.80;56.10;;;;;;483753;246;1007;-42
2022/06/14 07:36:36;;;;;;;;;;;21.70;56.00;;;;;;483629;246;1408;-42
2022/06/14 07:38:37;;;;;;;;;;;21.80;55.90;;;;;;483617;246;2124;-42
2022/06/14 07:40:38;;;;;;;;;;;21.80;55.80;;;;;;483651;246;1263;-42
2022/06/14 07:42:40;;;;;;;;;;;21.80;55.90;;;;;;483518;246;1156;-41
2022/06/14 07:44:41;;;;;;;;;;;21.70;56.00;;;;;;483441;246;1301;-41
2022/06/14 07:46:42;;;;;;;;;;;21.80;55.90;;;;;;483484;246;1323;-42
2022/06/14 07:48:45;;;;;;;;;;;21.80;55.90;;;;;;483462;246;1279;-42
2022/06/14 07:50:45;;;;;;;;;;;21.80;55.90;;;;;;483312;245;2225;-42
2022/06/14 07:52:47;;;;;;;;;;;21.80;55.90;;;;;;483223;246;1503;-42
2022/06/14 07:54:48;;;;;;;;;;;21.80;55.90;;;;;;483216;246;1324;-42
2022/06/14 07:56:49;;;;;;;;;;;21.80;55.90;;;;;;483338;246;1334;-42
2022/06/14 07:58:50;;;;;;;;;;;21.80;56.00;;;;;;483343;246;2156;-42
2022/06/14 08:03:24;;;;;;;;;;;21.70;55.80;;;;;;467300;246;1679;-42
2022/06/14 08:05:26;;;;;;;;;;;21.80;55.90;;;;;;483583;246;1354;-42
2022/06/14 08:07:27;;;;;;;;;;;21.80;55.90;;;;;;483254;246;1121;-42
2022/06/14 08:09:28;;;;;;;;;;;21.80;55.80;;;;;;483387;246;1091;-42
2022/06/14 08:11:30;;;;;;;;;;;21.70;55.80;;;;;;483419;246;1231;-42
2022/06/14 08:13:31;;;;;;;;;;;21.80;55.80;;;;;;483464;246;1205;-42
2022/06/14 08:15:32;;;;;;;;;;;21.80;55.80;;;;;;483535;246;1373;-42
2022/06/14 08:17:34;;;;;;;;;;;21.80;55.70;;;;;;483426;246;1223;-42
2022/06/14 08:19:36;;;;;;;;;;;21.80;55.70;;;;;;483307;246;2191;-42
2022/06/14 08:21:36;;;;;;;;;;;21.80;55.70;;;;;;483387;246;1660;-42
2022/06/14 08:23:38;;;;;;;;;;;21.70;55.80;;;;;;483257;246;1228;-42
2022/06/14 08:25:39;;;;;;;;;;;21.80;55.80;;;;;;483260;246;1307;-41
2022/06/14 08:27:40;;;;;;;;;;;21.70;55.80;;;;;;483319;246;1292;-43
2022/06/14 08:29:42;;;;;;;;;;;21.70;55.70;;;;;;483291;246;1164;-42
2022/06/14 08:31:43;;;;;;;;;;;21.70;55.70;;;;;;483230;246;1286;-42
2022/06/14 08:33:45;;;;;;;;;;;21.70;55.80;;;;;;483273;246;1232;-42
2022/06/14 08:35:46;;;;;;;;;;;21.70;55.70;;;;;;482204;246;1536;-42
2022/06/14 08:37:47;;;;;;;;;;;21.70;55.80;;;;;;471838;244;2194;-42
2022/06/14 08:39:49;;;;;;;;;;;21.70;55.80;;;;;;470263;250;1287;-42
2022/06/14 08:41:50;;;;;;;;;;;21.70;55.70;;;;;;470383;251;1445;-41
2022/06/14 08:43:51;;;;;;;;;;;21.80;55.60;;;;;;470871;250;1143;-42
2022/06/14 08:45:53;;;;;;;;;;;21.70;55.70;;;;;;471097;250;1200;-42
2022/06/14 08:47:54;;;;;;;;;;;21.80;55.60;;;;;;471388;250;1135;-41
2022/06/14 08:49:55;;;;;;;;;;;21.70;55.60;;;;;;470728;251;1144;-42
2022/06/14 08:51:57;;;;;;;;;;;21.70;55.70;;;;;;470499;250;1302;-41
2022/06/14 08:53:58;;;;;;;;;;;21.80;55.60;;;;;;470464;250;1130;-42
2022/06/14 08:55:59;;;;;;;;;;;21.70;55.60;;;;;;470505;251;1152;-41
2022/06/14 08:58:01;;;;;;;;;;;21.70;55.70;;;;;;470922;251;2199;-42
2022/06/14 09:00:02;;;;;;;;;;;21.70;55.60;;;;;;471419;250;1199;-42
2022/06/14 09:02:03;;;;;;;;;;;21.70;55.60;;;;;;471181;250;1167;-42
2022/06/14 09:04:05;;;;;;;;;;;21.70;55.60;;;;;;470780;251;1167;-42
2022/06/14 09:06:06;;;;;;;;;;;21.70;55.60;;;;;;471056;250;1231;-42
2022/06/14 09:08:07;;;;;;;;;;;21.70;55.60;;;;;;470795;251;1137;-42
2022/06/14 09:10:09;;;;;;;;;;;21.70;55.50;;;;;;471188;250;860;-42
2022/06/14 09:12:10;;;;;;;;;;;21.70;55.60;;;;;;470422;250;1202;-41
2022/06/14 09:14:12;;;;;;;;;;;21.80;55.50;;;;;;470307;251;1297;-42
2022/06/14 09:16:13;;;;;;;;;;;21.70;55.50;;;;;;470444;250;1337;-43
2022/06/14 09:18:14;;;;;;;;;;;21.70;55.50;;;;;;470613;251;2190;-42
2022/06/14 09:20:16;;;;;;;;;;;21.70;55.50;;;;;;470599;251;1135;-43
2022/06/14 09:22:17;;;;;;;;;;;21.70;55.50;;;;;;470398;251;1279;-42
2022/06/14 09:24:18;;;;;;;;;;;21.70;55.50;;;;;;470311;251;1176;-43
2022/06/14 09:26:20;;;;;;;;;;;21.70;55.50;;;;;;470509;250;1300;-42
2022/06/14 09:28:21;;;;;;;;;;;21.60;55.50;;;;;;470534;250;1376;-42
2022/06/14 09:30:22;;;;;;;;;;;21.70;55.50;;;;;;470580;250;1354;-42
2022/06/14 09:32:24;;;;;;;;;;;21.70;55.60;;;;;;470342;251;1274;-42
2022/06/14 09:34:25;;;;;;;;;;;21.70;55.50;;;;;;470369;250;1233;-42
2022/06/14 09:36:26;;;;;;;;;;;21.70;55.40;;;;;;470413;250;1371;-41
2022/06/14 09:38:28;;;;;;;;;;;21.70;55.40;;;;;;470454;250;2139;-42
2022/06/14 09:40:29;;;;;;;;;;;21.70;55.40;;;;;;470554;250;1462;-42
2022/06/14 09:42:30;;;;;;;;;;;21.70;55.50;;;;;;470556;250;1301;-42
2022/06/14 09:44:31;;;;;;;;;;;21.60;55.50;;;;;;470649;250;1133;-43
2022/06/14 09:46:33;;;;;;;;;;;21.70;55.40;;;;;;470610;251;1192;-42
2022/06/14 09:48:34;;;;;;;;;;;21.70;55.40;;;;;;471330;250;1059;-42
2022/06/14 09:50:35;;;;;;;;;;;21.70;55.50;;;;;;471346;250;1097;-41
2022/06/14 09:52:37;;;;;;;;;;;21.70;55.40;;;;;;470963;251;1072;-42
2022/06/14 09:54:38;;;;;;;;;;;21.70;55.40;;;;;;471367;250;1118;-43
2022/06/14 09:56:39;;;;;;;;;;;21.70;55.40;;;;;;470889;251;1065;-43
2022/06/14 09:58:41;;;;;;;;;;;21.70;55.40;;;;;;471234;250;2210;-42
2022/06/14 10:00:42;;;;;;;;;;;21.60;55.40;;;;;;470611;250;1233;-42
2022/06/14 10:02:43;;;;;;;;;;;21.70;55.30;;;;;;470420;250;1080;-41
2022/06/14 10:04:45;;;;;;;;;;;21.70;55.30;;;;;;470370;250;1135;-42
2022/06/14 10:06:48;;;;;;;;;;;21.70;55.30;;;;;;470294;250;1193;-42
2022/06/14 10:08:48;;;;;;;;;;;21.70;55.30;;;;;;469852;250;2176;-42
2022/06/14 10:10:49;;;;;;;;;;;21.70;55.30;;;;;;470379;250;1979;-42
2022/06/14 10:12:50;;;;;;;;;;;21.70;55.30;;;;;;470483;251;1246;-41
2022/06/14 10:14:51;;;;;;;;;;;21.70;55.40;;;;;;470820;251;1192;-42
2022/06/14 10:16:53;;;;;;;;;;;21.70;55.40;;;;;;471353;246;1712;-42
2022/06/14 10:18:54;;;;;;;;;;;21.70;55.30;;;;;;471002;251;2210;-42
2022/06/14 10:20:55;;;;;;;;;;;21.60;55.30;;;;;;471005;251;1029;-42
2022/06/14 10:22:57;;;;;;;;;;;21.60;55.30;;;;;;471259;250;1338;-42
2022/06/14 10:24:58;;;;;;;;;;;21.70;55.20;;;;;;470507;251;1206;-42
2022/06/14 10:29:18;;;;;;;;;;;21.70;55.30;;;;;;471160;252;1151;-42
2022/06/14 10:31:20;;;;;;;;;;;21.70;55.30;;;;;;470657;251;1734;-41
2022/06/14 10:33:21;;;;;;;;;;;21.70;55.30;;;;;;470877;250;1057;-41
2022/06/14 10:35:22;;;;;;;;;;;21.70;55.10;;;;;;471019;250;1135;-43
2022/06/14 10:37:24;;;;;;;;;;;21.70;55.20;;;;;;470871;250;1210;-42
2022/06/14 10:39:25;;;;;;;;;;;21.70;55.10;;;;;;470465;251;2226;-43
2022/06/14 10:41:26;;;;;;;;;;;21.70;55.20;;;;;;470562;250;1324;-42
2022/06/14 10:43:28;;;;;;;;;;;21.70;55.10;;;;;;470466;250;1218;-42
2022/06/14 10:45:29;;;;;;;;;;;21.70;55.10;;;;;;477631;246;1760;-42
2022/06/14 10:47:30;;;;;;;;;;;21.70;55.10;;;;;;483276;246;1165;-42
2022/06/14 10:49:32;;;;;;;;;;;21.60;55.10;;;;;;483262;246;1325;-42
2022/06/14 10:51:33;;;;;;;;;;;21.70;55.20;;;;;;483248;246;1289;-43
2022/06/14 10:53:34;;;;;;;;;;;21.70;55.30;;;;;;483394;246;1184;-42
2022/06/14 10:55:36;;;;;;;;;;;21.70;55.30;;;;;;483220;246;1219;-42
2022/06/14 10:57:38;;;;;;;;;;;21.70;55.30;;;;;;483275;246;1242;-42
2022/06/14 10:59:39;;;;;;;;;;;21.70;55.20;;;;;;483159;246;2137;-42
2022/06/14 11:01:41;;;;;;;;;;;21.60;55.20;;;;;;483230;246;1166;-42
2022/06/14 11:03:42;;;;;;;;;;;21.60;55.20;;;;;;483361;246;1215;-41
2022/06/14 11:05:44;;;;;;;;;;;21.60;55.20;;;;;;483333;246;1284;-42
2022/06/14 11:07:45;;;;;;;;;;;21.60;55.20;;;;;;482961;246;1786;-42
2022/06/14 11:09:47;;;;;;;;;;;21.70;55.10;;;;;;482923;246;1093;-42
2022/06/14 11:11:48;;;;;;;;;;;21.70;55.00;;;;;;483111;246;1236;-42
2022/06/14 11:13:50;;;;;;;;;;;21.70;55.10;;;;;;483007;246;1157;-41
2022/06/14 11:15:51;;;;;;;;;;;21.70;55.20;;;;;;483254;246;1268;-43
2022/06/14 11:17:52;;;;;;;;;;;21.70;55.00;;;;;;483709;246;1350;-42
2022/06/14 11:19:54;;;;;;;;;;;21.70;55.10;;;;;;483932;246;2203;-42
2022/06/14 11:21:55;;;;;;;;;;;21.70;55.00;;;;;;483835;246;1194;-42
2022/06/14 11:23:56;;;;;;;;;;;21.70;55.00;;;;;;483758;246;1124;-42
2022/06/14 11:25:58;;;;;;;;;;;21.70;54.90;;;;;;483802;246;1505;-41
2022/06/14 11:27:59;;;;;;;;;;;21.70;54.90;;;;;;483982;246;1091;-42
2022/06/14 11:30:00;;;;;;;;;;;21.70;55.00;;;;;;483794;246;1151;-42
2022/06/14 11:32:02;;;;;;;;;;;21.70;55.10;;;;;;484107;246;1039;-41
2022/06/14 11:34:03;;;;;;;;;;;21.70;55.00;;;;;;484136;246;1067;-42
2022/06/14 11:36:05;;;;;;;;;;;21.70;54.90;;;;;;484320;246;1059;-41
2022/06/14 11:38:06;;;;;;;;;;;21.60;55.00;;;;;;484266;246;1109;-43
2022/06/14 11:40:08;;;;;;;;;;;21.60;54.90;;;;;;484272;246;2196;-42
2022/06/14 11:42:09;;;;;;;;;;;21.70;54.90;;;;;;483704;246;1059;-42
2022/06/14 11:44:10;;;;;;;;;;;21.70;54.90;;;;;;484222;245;1147;-43
2022/06/14 11:46:13;;;;;;;;;;;21.70;54.90;;;;;;483841;246;1099;-42
2022/06/14 11:48:13;;;;;;;;;;;21.70;54.90;;;;;;483533;246;2098;-42
2022/06/14 11:50:14;;;;;;;;;;;21.70;54.90;;;;;;483573;246;1270;-42
2022/06/14 11:52:16;;;;;;;;;;;21.70;55.00;;;;;;483650;246;1190;-42
2022/06/14 11:54:17;;;;;;;;;;;21.70;55.00;;;;;;483532;246;1218;-42
2022/06/14 11:56:19;;;;;;;;;;;21.70;54.90;;;;;;483580;246;1202;-41
2022/06/14 11:58:21;;;;;;;;;;;21.70;54.90;;;;;;483455;246;1237;-43
2022/06/14 12:00:23;;;;;;;;;;;21.70;54.90;;;;;;483406;246;2187;-42
2022/06/14 12:02:23;;;;;;;;;;;21.70;54.80;;;;;;484085;246;1413;-42
2022/06/14 12:04:25;;;;;;;;;;;21.60;54.90;;;;;;483813;246;1057;-42
2022/06/14 12:06:26;;;;;;;;;;;21.60;55.00;;;;;;484230;246;1356;-42
2022/06/14 12:08:27;;;;;;;;;;;21.70;55.00;;;;;;483610;246;1262;-43
2022/06/14 12:10:29;;;;;;;;;;;21.70;55.00;;;;;;483766;246;1185;-42